Queen Of Burnaby — VCVV — position and weather

sailwx.info

Track history (hours):
 
Tides and Currents Weather Stations Pressure Air Temp Water Temp Dewpoint Dewpoint Depression Visibility Wind Speed Wind Dir Waves Ship Positions

Queen Of Burnaby

Last reported at 2016-Aug-29 21:29 UTC. Time now 2016-Aug-30 03:16 UTC.
Position N 49°44' W 124°55'.

Length 130 m; draft 4 m.

MMSI: 316001246.

Date/timePositionNaut miles runAvg speedWind from/ knotsBaromVisibWave heightAir tempDewpointWater temp
2016-Aug-29 21:29N 49°44' W 124°55'0 0.0
2016-Aug-29 20:17N 49°44' W 124°55'811.4
2016-Aug-29 19:34N 49°47' W 124°44'8 7.7
2016-Aug-29 18:32N 49°50' W 124°32'1010.1
2016-Aug-29 17:33N 49°47' W 124°46'6 6.4
2016-Aug-29 16:33N 49°44' W 124°55'1111.1
2016-Aug-29 15:33N 49°48' W 124°39'5 4.8
2016-Aug-29 14:33N 49°50' W 124°33'1413.4
2016-Aug-29 13:32N 49°45' W 124°52'2 2.0
2016-Aug-29 12:29N 49°44' W 124°55'0 0.0
2016-Aug-29 11:29N 49°44' W 124°55'0 0.0
2016-Aug-29 10:32N 49°44' W 124°55'0 0.0
2016-Aug-29 09:29N 49°44' W 124°55'0 0.0
2016-Aug-29 08:29N 49°44' W 124°55'0 0.0
2016-Aug-29 07:32N 49°44' W 124°55'0 0.0
2016-Aug-29 06:29N 49°44' W 124°55'6 3.3
2016-Aug-29 04:34N 49°47' W 124°47'1010.0
2016-Aug-29 03:33N 49°50' W 124°32'1413.6
2016-Aug-29 02:33N 49°46' W 124°52'3 2.7
2016-Aug-29 01:33N 49°44' W 124°55'1414.3
2016-Aug-29 00:33N 49°49' W 124°35'1 1.1
2016-Aug-28 23:34N 49°50' W 124°33'1514.8
2016-Aug-28 22:33N 49°45' W 124°55'0 0.5
2016-Aug-28 21:33N 49°44' W 124°55'0 0.0
2016-Aug-28 20:26N 49°44' W 124°55'8 8.8
2016-Aug-28 19:33N 49°47' W 124°44'8 7.9
2016-Aug-28 18:29N 49°50' W 124°32'1010.3
2016-Aug-28 17:33N 49°47' W 124°46'7 6.5
2016-Aug-28 16:32N 49°44' W 124°55'1010.7
2016-Aug-28 15:33N 49°48' W 124°40'5 5.0
2016-Aug-28 14:33N 49°50' W 124°33'1413.7
2016-Aug-28 13:33N 49°45' W 124°53'2 1.7
2016-Aug-28 12:32N 49°44' W 124°55'0 0.0
2016-Aug-28 11:32N 49°44' W 124°55'0 0.0
2016-Aug-28 10:32N 49°44' W 124°55'0 0.0
2016-Aug-28 09:32N 49°44' W 124°55'0 0.0
2016-Aug-28 08:29N 49°44' W 124°55'0 0.0
2016-Aug-28 07:29N 49°44' W 124°55'0 0.0
2016-Aug-28 06:32N 49°44' W 124°55'0 0.0
2016-Aug-28 05:29N 49°44' W 124°55'5 5.7
2016-Aug-28 04:33N 49°46' W 124°48'1110.9
2016-Aug-28 03:34N 49°50' W 124°32'9 8.7
2016-Aug-28 02:34N 49°47' W 124°44'8 7.2
2016-Aug-28 01:31N 49°44' W 124°55'0 0.0
2016-Aug-28 00:28N 49°44' W 124°55'0 0.0
2016-Aug-27 23:28N 49°44' W 124°55'0 0.0
2016-Aug-27 22:31N 49°44' W 124°55'0 0.0
2016-Aug-27 21:31N 49°44' W 124°55'0 0.0
2016-Aug-27 20:31N 49°44' W 124°55'9 9.1
2016-Aug-27 19:34N 49°48' W 124°43'8 7.6
2016-Aug-27 18:33N 49°50' W 124°32'1111.2
2016-Aug-27 17:33N 49°46' W 124°48'5 4.9
2016-Aug-27 16:32N 49°44' W 124°55'1111.0
2016-Aug-27 15:33N 49°48' W 124°40'5 5.4
2016-Aug-27 14:33N 49°50' W 124°32'1414.4
2016-Aug-27 13:33N 49°45' W 124°53'2 1.7
2016-Aug-27 12:28N 49°44' W 124°55'0 0.0
2016-Aug-27 11:31N 49°44' W 124°55'0 0.0
2016-Aug-27 10:31N 49°44' W 124°55'0 0.0
2016-Aug-27 09:31N 49°44' W 124°55'0 0.0
2016-Aug-27 08:31N 49°44' W 124°55'0 0.0
2016-Aug-27 07:28N 49°44' W 124°55'0 0.0
2016-Aug-27 06:28N 49°44' W 124°55'8 4.2
2016-Aug-27 04:33N 49°47' W 124°44'8 8.1
2016-Aug-27 03:33N 49°50' W 124°32'1413.9
2016-Aug-27 02:33N 49°45' W 124°52'2 2.3
2016-Aug-27 01:33N 49°44' W 124°55'1212.2
2016-Aug-27 00:34N 49°49' W 124°38'4 4.0
2016-Aug-26 23:33N 49°50' W 124°32'1313.4
2016-Aug-26 22:33N 49°46' W 124°52'3 2.7
2016-Aug-26 21:34N 49°44' W 124°55'0 0.0
2016-Aug-26 20:34N 49°44' W 124°55'1212.2
2016-Aug-26 19:34N 49°49' W 124°38'4 4.0
2016-Aug-26 18:34N 49°50' W 124°32'1211.6
2016-Aug-26 17:33N 49°46' W 124°49'5 4.6
2016-Aug-26 16:33N 49°44' W 124°55'1212.2
2016-Aug-26 15:33N 49°49' W 124°38'2 2.5
2016-Aug-26 14:33N 49°50' W 124°34'1312.6
2016-Aug-26 13:33N 49°45' W 124°52'2 2.0
2016-Aug-26 12:30N 49°44' W 124°55'0 0.0
2016-Aug-26 11:30N 49°44' W 124°55'0 0.0
2016-Aug-26 09:06N 49°44' W 124°55'0 0.0
2016-Aug-26 08:30N 49°44' W 124°55'0 0.0
2016-Aug-26 07:27N 49°44' W 124°55'0 0.0
2016-Aug-26 06:30N 49°44' W 124°55'6 3.1
2016-Aug-26 04:34N 49°47' W 124°47'1010.2
2016-Aug-26 03:34N 49°50' W 124°32'1413.7
2016-Aug-26 02:33N 49°46' W 124°52'2 2.5
2016-Aug-26 01:33N 49°44' W 124°55'1212.4
2016-Aug-26 00:33N 49°49' W 124°37'4 3.6
2016-Aug-25 23:34N 49°50' W 124°32'1514.9
2016-Aug-25 22:33N 49°45' W 124°54'1 1.0
2016-Aug-25 21:33N 49°44' W 124°55'0 0.0
2016-Aug-25 20:33N 49°44' W 124°55'1111.0
2016-Aug-25 19:33N 49°48' W 124°40'5 5.4
2016-Aug-25 18:33N 49°50' W 124°32'9 9.2
2016-Aug-25 17:33N 49°47' W 124°45'7 7.1
2016-Aug-25 16:34N 49°44' W 124°55'1110.6
2016-Aug-25 15:33N 49°48' W 124°40'6 5.6
2016-Aug-25 14:33N 49°50' W 124°32'1514.7
2016-Aug-25 13:33N 49°45' W 124°53'1 1.3
2016-Aug-25 12:28N 49°44' W 124°55'0 0.0
2016-Aug-25 11:28N 49°44' W 124°55'0 0.0
2016-Aug-25 10:28N 49°44' W 124°55'0 0.0
2016-Aug-25 09:28N 49°44' W 124°55'0 0.0
2016-Aug-25 08:28N 49°44' W 124°55'0 0.0
2016-Aug-25 07:31N 49°44' W 124°55'0 0.0
2016-Aug-25 06:28N 49°44' W 124°55'7 3.4
2016-Aug-25 04:33N 49°47' W 124°46'10 9.7
2016-Aug-25 03:33N 49°50' W 124°32'1313.2
2016-Aug-25 02:33N 49°46' W 124°51'3 3.0
2016-Aug-25 01:33N 49°44' W 124°55'1212.3
2016-Aug-25 00:33N 49°49' W 124°38'4 3.6
2016-Aug-24 23:33N 49°50' W 124°33'1313.3
2016-Aug-24 22:33N 49°45' W 124°52'2 2.3
2016-Aug-24 21:31N 49°44' W 124°55'0 0.0
2016-Aug-24 20:31N 49°44' W 124°55'1010.7
2016-Aug-24 19:33N 49°48' W 124°41'6 6.0
2016-Aug-24 18:34N 49°50' W 124°32'1110.9
2016-Aug-24 17:33N 49°46' W 124°48'5 5.3
2016-Aug-24 16:34N 49°44' W 124°55'1110.8
2016-Aug-24 15:33N 49°48' W 124°40'4 4.4
2016-Aug-24 14:33N 49°50' W 124°34'1313.3
2016-Aug-24 13:33N 49°45' W 124°52'2 1.9
2016-Aug-24 12:27N 49°44' W 124°55'0 0.0
2016-Aug-24 11:33N 49°44' W 124°55'0 0.0
2016-Aug-24 10:33N 49°44' W 124°55'0 0.0
2016-Aug-24 09:33N 49°44' W 124°55'0 0.0
2016-Aug-24 08:33N 49°44' W 124°55'0 0.0
2016-Aug-24 07:33N 49°44' W 124°55'0 0.0
2016-Aug-24 06:33N 49°44' W 124°55'5 2.6
2016-Aug-24 04:34N 49°46' W 124°48'1111.0
2016-Aug-24 03:33N 49°50' W 124°32'1312.8
2016-Aug-24 02:33N 49°46' W 124°51'3 3.3
2016-Aug-24 01:33N 49°44' W 124°55'1212.1
2016-Aug-24 00:33N 49°49' W 124°38'4 4.0
2016-Aug-23 23:34N 49°50' W 124°32'1413.7
2016-Aug-23 22:33N 49°45' W 124°52'2 2.3
2016-Aug-23 21:31N 49°44' W 124°55'0 0.0
2016-Aug-23 20:31N 49°44' W 124°55'1010.4
2016-Aug-23 19:33N 49°48' W 124°41'6 6.3
2016-Aug-23 18:33N 49°50' W 124°32'1110.6
2016-Aug-23 17:33N 49°46' W 124°47'6 5.6
2016-Aug-23 16:33N 49°44' W 124°55'1211.6
2016-Aug-23 15:33N 49°48' W 124°39'4 3.9
2016-Aug-23 14:33N 49°50' W 124°33'1414.4
2016-Aug-23 13:33N 49°45' W 124°54'1 0.9
2016-Aug-23 12:23N 49°44' W 124°55'0 0.0
2016-Aug-23 11:23N 49°44' W 124°55'0 0.0
2016-Aug-23 10:32N 49°44' W 124°55'0 0.0
2016-Aug-23 09:29N 49°44' W 124°55'0 0.0
2016-Aug-23 08:26N 49°44' W 124°55'0 0.0
2016-Aug-23 07:32N 49°44' W 124°55'0 0.0
2016-Aug-23 06:29N 49°44' W 124°55'0 0.0
2016-Aug-23 05:32N 49°44' W 124°55'6 5.8
2016-Aug-23 04:33N 49°47' W 124°47'1110.6
2016-Aug-23 03:33N 49°50' W 124°32'1212.5
2016-Aug-23 02:33N 49°46' W 124°50'4 3.7
2016-Aug-23 01:33N 49°44' W 124°55'1212.1
2016-Aug-23 00:33N 49°49' W 124°38'4 3.9
2016-Aug-22 23:33N 49°50' W 124°32'1313.5
2016-Aug-22 22:33N 49°46' W 124°52'3 2.4
2016-Aug-22 21:31N 49°44' W 124°55'0 0.0
2016-Aug-22 20:33N 49°44' W 124°55'1313.4
2016-Aug-22 19:34N 49°49' W 124°36'3 2.9
2016-Aug-22 18:33N 49°50' W 124°32'1312.7
2016-Aug-22 17:33N 49°46' W 124°50'3 3.5
2016-Aug-22 16:33N 49°44' W 124°55'1212.1
2016-Aug-22 15:33N 49°49' W 124°38'4 3.6
2016-Aug-22 14:33N 49°50' W 124°33'1413.8
2016-Aug-22 13:33N 49°45' W 124°53'2 1.6
2016-Aug-22 12:25N 49°44' W 124°55'0 0.0
2016-Aug-22 11:31N 49°44' W 124°55'0 0.0
2016-Aug-22 10:31N 49°44' W 124°55'0 0.0
2016-Aug-22 09:31N 49°44' W 124°55'0 0.0
2016-Aug-22 08:31N 49°44' W 124°55'0 0.0
2016-Aug-22 07:31N 49°44' W 124°55'0 0.0
2016-Aug-22 06:22N 49°44' W 124°55'0 0.0
2016-Aug-22 05:31N 49°44' W 124°55'5 5.4
2016-Aug-22 04:34N 49°46' W 124°48'1111.0
2016-Aug-22 03:33N 49°50' W 124°32'1312.8
2016-Aug-22 02:33N 49°46' W 124°50'3 3.4
2016-Aug-22 01:33N 49°44' W 124°55'1414.1
2016-Aug-22 00:33N 49°49' W 124°35'1 1.4
2016-Aug-21 23:33N 49°50' W 124°34'1514.7
2016-Aug-21 22:33N 49°45' W 124°55'1 0.5
2016-Aug-21 21:31N 49°44' W 124°55'0 0.0
2016-Aug-21 20:31N 49°44' W 124°55'1010.8
2016-Aug-21 19:34N 49°48' W 124°40'6 5.9
2016-Aug-21 18:33N 49°50' W 124°32'1010.2
2016-Aug-21 17:33N 49°46' W 124°47'6 6.0
2016-Aug-21 16:33N 49°44' W 124°55'1110.9
2016-Aug-21 15:34N 49°48' W 124°40'4 3.9
2016-Aug-21 14:33N 49°50' W 124°34'1313.3
2016-Aug-21 13:33N 49°45' W 124°54'1 1.3
2016-Aug-21 12:31N 49°44' W 124°55'0 0.0
2016-Aug-21 11:31N 49°44' W 124°55'0 0.0
2016-Aug-21 10:31N 49°44' W 124°55'0 0.0
2016-Aug-21 09:31N 49°44' W 124°55'0 0.0
2016-Aug-21 08:28N 49°44' W 124°55'0 0.0
2016-Aug-21 06:31N 49°44' W 124°55'0 0.0
2016-Aug-21 05:25N 49°44' W 124°55'5 5.7
2016-Aug-21 04:33N 49°47' W 124°49'1111.3
2016-Aug-21 03:33N 49°50' W 124°32'8 7.7
2016-Aug-21 02:33N 49°47' W 124°43'9 7.2
2016-Aug-21 01:22N 49°44' W 124°55'0 0.0
2016-Aug-21 00:28N 49°44' W 124°55'0 0.0
2016-Aug-20 23:28N 49°44' W 124°55'0 0.0
2016-Aug-20 22:28N 49°44' W 124°55'0 0.0
2016-Aug-20 21:31N 49°44' W 124°55'0 0.0
2016-Aug-20 20:33N 49°44' W 124°55'1312.9
2016-Aug-20 19:34N 49°49' W 124°37'4 3.5
2016-Aug-20 18:33N 49°50' W 124°32'1111.1
2016-Aug-20 17:34N 49°46' W 124°48'5 5.1
2016-Aug-20 16:33N 49°44' W 124°55'1212.3
2016-Aug-20 15:34N 49°49' W 124°38'2 2.1
2016-Aug-20 14:33N 49°50' W 124°35'1312.6
2016-Aug-20 13:33N 49°45' W 124°53'2 1.6
2016-Aug-20 12:32N 49°44' W 124°55'0 0.0
2016-Aug-20 11:32N 49°44' W 124°55'0 0.0
2016-Aug-20 10:26N 49°44' W 124°55'0 0.0
2016-Aug-20 09:32N 49°44' W 124°55'0 0.0
2016-Aug-20 08:32N 49°44' W 124°55'0 0.0
2016-Aug-20 07:32N 49°44' W 124°55'0 0.0
2016-Aug-20 06:32N 49°44' W 124°55'0 0.0
2016-Aug-20 05:32N 49°44' W 124°55'6 6.4
2016-Aug-20 04:33N 49°47' W 124°47'10 9.9
2016-Aug-20 03:33N 49°50' W 124°32'1312.9
2016-Aug-20 02:33N 49°46' W 124°51'3 3.3
2016-Aug-20 01:33N 49°44' W 124°55'1212.3
2016-Aug-20 00:33N 49°49' W 124°38'4 4.0
2016-Aug-19 23:34N 49°50' W 124°32'1413.9
2016-Aug-19 22:34N 49°46' W 124°52'2 2.4
2016-Aug-19 21:33N 49°44' W 124°55'  
Track history (hours):
 
Tides and Currents Weather Stations Pressure Air Temp Water Temp Dewpoint Dewpoint Depression Visibility Wind Speed Wind Dir Waves Ship Positions

Queen Of Burnaby

Last reported at 2016-Aug-29 21:29 UTC. Time now 2016-Aug-30 03:16 UTC.
Position N 49°44' W 124°55'.

Length 130 m; draft 4 m.

MMSI: 316001246.

Date/timePositionNaut miles runAvg speedWind from/ knotsBaromVisibWave heightAir tempDewpointWater temp
2016-Aug-29 21:29N 49°44' W 124°55'0 0.0
2016-Aug-29 20:17N 49°44' W 124°55'811.4
2016-Aug-29 19:34N 49°47' W 124°44'8 7.7
2016-Aug-29 18:32N 49°50' W 124°32'1010.1
2016-Aug-29 17:33N 49°47' W 124°46'6 6.4
2016-Aug-29 16:33N 49°44' W 124°55'1111.1
2016-Aug-29 15:33N 49°48' W 124°39'5 4.8
2016-Aug-29 14:33N 49°50' W 124°33'1413.4
2016-Aug-29 13:32N 49°45' W 124°52'2 2.0
2016-Aug-29 12:29N 49°44' W 124°55'0 0.0
2016-Aug-29 11:29N 49°44' W 124°55'0 0.0
2016-Aug-29 10:32N 49°44' W 124°55'0 0.0
2016-Aug-29 09:29N 49°44' W 124°55'0 0.0
2016-Aug-29 08:29N 49°44' W 124°55'0 0.0
2016-Aug-29 07:32N 49°44' W 124°55'0 0.0
2016-Aug-29 06:29N 49°44' W 124°55'6 3.3
2016-Aug-29 04:34N 49°47' W 124°47'1010.0
2016-Aug-29 03:33N 49°50' W 124°32'1413.6
2016-Aug-29 02:33N 49°46' W 124°52'3 2.7
2016-Aug-29 01:33N 49°44' W 124°55'1414.3
2016-Aug-29 00:33N 49°49' W 124°35'1 1.1
2016-Aug-28 23:34N 49°50' W 124°33'1514.8
2016-Aug-28 22:33N 49°45' W 124°55'0 0.5
2016-Aug-28 21:33N 49°44' W 124°55'0 0.0
2016-Aug-28 20:26N 49°44' W 124°55'8 8.8
2016-Aug-28 19:33N 49°47' W 124°44'8 7.9
2016-Aug-28 18:29N 49°50' W 124°32'1010.3
2016-Aug-28 17:33N 49°47' W 124°46'7 6.5
2016-Aug-28 16:32N 49°44' W 124°55'1010.7
2016-Aug-28 15:33N 49°48' W 124°40'5 5.0
2016-Aug-28 14:33N 49°50' W 124°33'1413.7
2016-Aug-28 13:33N 49°45' W 124°53'2 1.7
2016-Aug-28 12:32N 49°44' W 124°55'0 0.0
2016-Aug-28 11:32N 49°44' W 124°55'0 0.0
2016-Aug-28 10:32N 49°44' W 124°55'0 0.0
2016-Aug-28 09:32N 49°44' W 124°55'0 0.0
2016-Aug-28 08:29N 49°44' W 124°55'0 0.0
2016-Aug-28 07:29N 49°44' W 124°55'0 0.0
2016-Aug-28 06:32N 49°44' W 124°55'0 0.0
2016-Aug-28 05:29N 49°44' W 124°55'5 5.7
2016-Aug-28 04:33N 49°46' W 124°48'1110.9
2016-Aug-28 03:34N 49°50' W 124°32'9 8.7
2016-Aug-28 02:34N 49°47' W 124°44'8 7.2
2016-Aug-28 01:31N 49°44' W 124°55'0 0.0
2016-Aug-28 00:28N 49°44' W 124°55'0 0.0
2016-Aug-27 23:28N 49°44' W 124°55'0 0.0
2016-Aug-27 22:31N 49°44' W 124°55'0 0.0
2016-Aug-27 21:31N 49°44' W 124°55'0 0.0
2016-Aug-27 20:31N 49°44' W 124°55'9 9.1
2016-Aug-27 19:34N 49°48' W 124°43'8 7.6
2016-Aug-27 18:33N 49°50' W 124°32'1111.2
2016-Aug-27 17:33N 49°46' W 124°48'5 4.9
2016-Aug-27 16:32N 49°44' W 124°55'1111.0
2016-Aug-27 15:33N 49°48' W 124°40'5 5.4
2016-Aug-27 14:33N 49°50' W 124°32'1414.4
2016-Aug-27 13:33N 49°45' W 124°53'2 1.7
2016-Aug-27 12:28N 49°44' W 124°55'0 0.0
2016-Aug-27 11:31N 49°44' W 124°55'0 0.0
2016-Aug-27 10:31N 49°44' W 124°55'0 0.0
2016-Aug-27 09:31N 49°44' W 124°55'0 0.0
2016-Aug-27 08:31N 49°44' W 124°55'0 0.0
2016-Aug-27 07:28N 49°44' W 124°55'0 0.0
2016-Aug-27 06:28N 49°44' W 124°55'8 4.2
2016-Aug-27 04:33N 49°47' W 124°44'8 8.1
2016-Aug-27 03:33N 49°50' W 124°32'1413.9
2016-Aug-27 02:33N 49°45' W 124°52'2 2.3
2016-Aug-27 01:33N 49°44' W 124°55'1212.2
2016-Aug-27 00:34N 49°49' W 124°38'4 4.0
2016-Aug-26 23:33N 49°50' W 124°32'1313.4
2016-Aug-26 22:33N 49°46' W 124°52'3 2.7
2016-Aug-26 21:34N 49°44' W 124°55'0 0.0
2016-Aug-26 20:34N 49°44' W 124°55'1212.2
2016-Aug-26 19:34N 49°49' W 124°38'4 4.0
2016-Aug-26 18:34N 49°50' W 124°32'1211.6
2016-Aug-26 17:33N 49°46' W 124°49'5 4.6
2016-Aug-26 16:33N 49°44' W 124°55'1212.2
2016-Aug-26 15:33N 49°49' W 124°38'2 2.5
2016-Aug-26 14:33N 49°50' W 124°34'1312.6
2016-Aug-26 13:33N 49°45' W 124°52'2 2.0
2016-Aug-26 12:30N 49°44' W 124°55'0 0.0
2016-Aug-26 11:30N 49°44' W 124°55'0 0.0
2016-Aug-26 09:06N 49°44' W 124°55'0 0.0
2016-Aug-26 08:30N 49°44' W 124°55'0 0.0
2016-Aug-26 07:27N 49°44' W 124°55'0 0.0
2016-Aug-26 06:30N 49°44' W 124°55'6 3.1
2016-Aug-26 04:34N 49°47' W 124°47'1010.2
2016-Aug-26 03:34N 49°50' W 124°32'1413.7
2016-Aug-26 02:33N 49°46' W 124°52'2 2.5
2016-Aug-26 01:33N 49°44' W 124°55'1212.4
2016-Aug-26 00:33N 49°49' W 124°37'4 3.6
2016-Aug-25 23:34N 49°50' W 124°32'1514.9
2016-Aug-25 22:33N 49°45' W 124°54'1 1.0
2016-Aug-25 21:33N 49°44' W 124°55'0 0.0
2016-Aug-25 20:33N 49°44' W 124°55'1111.0
2016-Aug-25 19:33N 49°48' W 124°40'5 5.4
2016-Aug-25 18:33N 49°50' W 124°32'9 9.2
2016-Aug-25 17:33N 49°47' W 124°45'7 7.1
2016-Aug-25 16:34N 49°44' W 124°55'1110.6
2016-Aug-25 15:33N 49°48' W 124°40'6 5.6
2016-Aug-25 14:33N 49°50' W 124°32'1514.7
2016-Aug-25 13:33N 49°45' W 124°53'1 1.3
2016-Aug-25 12:28N 49°44' W 124°55'0 0.0
2016-Aug-25 11:28N 49°44' W 124°55'0 0.0
2016-Aug-25 10:28N 49°44' W 124°55'0 0.0
2016-Aug-25 09:28N 49°44' W 124°55'0 0.0
2016-Aug-25 08:28N 49°44' W 124°55'0 0.0
2016-Aug-25 07:31N 49°44' W 124°55'0 0.0
2016-Aug-25 06:28N 49°44' W 124°55'7 3.4
2016-Aug-25 04:33N 49°47' W 124°46'10 9.7
2016-Aug-25 03:33N 49°50' W 124°32'1313.2
2016-Aug-25 02:33N 49°46' W 124°51'3 3.0
2016-Aug-25 01:33N 49°44' W 124°55'1212.3
2016-Aug-25 00:33N 49°49' W 124°38'4 3.6
2016-Aug-24 23:33N 49°50' W 124°33'1313.3
2016-Aug-24 22:33N 49°45' W 124°52'2 2.3
2016-Aug-24 21:31N 49°44' W 124°55'0 0.0
2016-Aug-24 20:31N 49°44' W 124°55'1010.7
2016-Aug-24 19:33N 49°48' W 124°41'6 6.0
2016-Aug-24 18:34N 49°50' W 124°32'1110.9
2016-Aug-24 17:33N 49°46' W 124°48'5 5.3
2016-Aug-24 16:34N 49°44' W 124°55'1110.8
2016-Aug-24 15:33N 49°48' W 124°40'4 4.4
2016-Aug-24 14:33N 49°50' W 124°34'1313.3
2016-Aug-24 13:33N 49°45' W 124°52'2 1.9
2016-Aug-24 12:27N 49°44' W 124°55'0 0.0
2016-Aug-24 11:33N 49°44' W 124°55'0 0.0
2016-Aug-24 10:33N 49°44' W 124°55'0 0.0
2016-Aug-24 09:33N 49°44' W 124°55'0 0.0
2016-Aug-24 08:33N 49°44' W 124°55'0 0.0
2016-Aug-24 07:33N 49°44' W 124°55'0 0.0
2016-Aug-24 06:33N 49°44' W 124°55'5 2.6
2016-Aug-24 04:34N 49°46' W 124°48'1111.0
2016-Aug-24 03:33N 49°50' W 124°32'1312.8
2016-Aug-24 02:33N 49°46' W 124°51'3 3.3
2016-Aug-24 01:33N 49°44' W 124°55'1212.1
2016-Aug-24 00:33N 49°49' W 124°38'4 4.0
2016-Aug-23 23:34N 49°50' W 124°32'1413.7
2016-Aug-23 22:33N 49°45' W 124°52'2 2.3
2016-Aug-23 21:31N 49°44' W 124°55'0 0.0
2016-Aug-23 20:31N 49°44' W 124°55'1010.4
2016-Aug-23 19:33N 49°48' W 124°41'6 6.3
2016-Aug-23 18:33N 49°50' W 124°32'1110.6
2016-Aug-23 17:33N 49°46' W 124°47'6 5.6
2016-Aug-23 16:33N 49°44' W 124°55'1211.6
2016-Aug-23 15:33N 49°48' W 124°39'4 3.9
2016-Aug-23 14:33N 49°50' W 124°33'1414.4
2016-Aug-23 13:33N 49°45' W 124°54'1 0.9
2016-Aug-23 12:23N 49°44' W 124°55'0 0.0
2016-Aug-23 11:23N 49°44' W 124°55'0 0.0
2016-Aug-23 10:32N 49°44' W 124°55'0 0.0
2016-Aug-23 09:29N 49°44' W 124°55'0 0.0
2016-Aug-23 08:26N 49°44' W 124°55'0 0.0
2016-Aug-23 07:32N 49°44' W 124°55'0 0.0
2016-Aug-23 06:29N 49°44' W 124°55'0 0.0
2016-Aug-23 05:32N 49°44' W 124°55'6 5.8
2016-Aug-23 04:33N 49°47' W 124°47'1110.6
2016-Aug-23 03:33N 49°50' W 124°32'1212.5
2016-Aug-23 02:33N 49°46' W 124°50'4 3.7
2016-Aug-23 01:33N 49°44' W 124°55'1212.1
2016-Aug-23 00:33N 49°49' W 124°38'4 3.9
2016-Aug-22 23:33N 49°50' W 124°32'1313.5
2016-Aug-22 22:33N 49°46' W 124°52'3 2.4
2016-Aug-22 21:31N 49°44' W 124°55'0 0.0
2016-Aug-22 20:33N 49°44' W 124°55'1313.4
2016-Aug-22 19:34N 49°49' W 124°36'3 2.9
2016-Aug-22 18:33N 49°50' W 124°32'1312.7
2016-Aug-22 17:33N 49°46' W 124°50'3 3.5
2016-Aug-22 16:33N 49°44' W 124°55'1212.1
2016-Aug-22 15:33N 49°49' W 124°38'4 3.6
2016-Aug-22 14:33N 49°50' W 124°33'1413.8
2016-Aug-22 13:33N 49°45' W 124°53'2 1.6
2016-Aug-22 12:25N 49°44' W 124°55'0 0.0
2016-Aug-22 11:31N 49°44' W 124°55'0 0.0
2016-Aug-22 10:31N 49°44' W 124°55'0 0.0
2016-Aug-22 09:31N 49°44' W 124°55'0 0.0
2016-Aug-22 08:31N 49°44' W 124°55'0 0.0
2016-Aug-22 07:31N 49°44' W 124°55'0 0.0
2016-Aug-22 06:22N 49°44' W 124°55'0 0.0
2016-Aug-22 05:31N 49°44' W 124°55'5 5.4
2016-Aug-22 04:34N 49°46' W 124°48'1111.0
2016-Aug-22 03:33N 49°50' W 124°32'1312.8
2016-Aug-22 02:33N 49°46' W 124°50'3 3.4
2016-Aug-22 01:33N 49°44' W 124°55'1414.1
2016-Aug-22 00:33N 49°49' W 124°35'1 1.4
2016-Aug-21 23:33N 49°50' W 124°34'1514.7
2016-Aug-21 22:33N 49°45' W 124°55'1 0.5
2016-Aug-21 21:31N 49°44' W 124°55'0 0.0
2016-Aug-21 20:31N 49°44' W 124°55'1010.8
2016-Aug-21 19:34N 49°48' W 124°40'6 5.9
2016-Aug-21 18:33N 49°50' W 124°32'1010.2
2016-Aug-21 17:33N 49°46' W 124°47'6 6.0
2016-Aug-21 16:33N 49°44' W 124°55'1110.9
2016-Aug-21 15:34N 49°48' W 124°40'4 3.9
2016-Aug-21 14:33N 49°50' W 124°34'1313.3
2016-Aug-21 13:33N 49°45' W 124°54'1 1.3
2016-Aug-21 12:31N 49°44' W 124°55'0 0.0
2016-Aug-21 11:31N 49°44' W 124°55'0 0.0
2016-Aug-21 10:31N 49°44' W 124°55'0 0.0
2016-Aug-21 09:31N 49°44' W 124°55'0 0.0
2016-Aug-21 08:28N 49°44' W 124°55'0 0.0
2016-Aug-21 06:31N 49°44' W 124°55'0 0.0
2016-Aug-21 05:25N 49°44' W 124°55'5 5.7
2016-Aug-21 04:33N 49°47' W 124°49'1111.3
2016-Aug-21 03:33N 49°50' W 124°32'8 7.7
2016-Aug-21 02:33N 49°47' W 124°43'9 7.2
2016-Aug-21 01:22N 49°44' W 124°55'0 0.0
2016-Aug-21 00:28N 49°44' W 124°55'0 0.0
2016-Aug-20 23:28N 49°44' W 124°55'0 0.0
2016-Aug-20 22:28N 49°44' W 124°55'0 0.0
2016-Aug-20 21:31N 49°44' W 124°55'0 0.0
2016-Aug-20 20:33N 49°44' W 124°55'1312.9
2016-Aug-20 19:34N 49°49' W 124°37'4 3.5
2016-Aug-20 18:33N 49°50' W 124°32'1111.1
2016-Aug-20 17:34N 49°46' W 124°48'5 5.1
2016-Aug-20 16:33N 49°44' W 124°55'1212.3
2016-Aug-20 15:34N 49°49' W 124°38'2 2.1
2016-Aug-20 14:33N 49°50' W 124°35'1312.6
2016-Aug-20 13:33N 49°45' W 124°53'2 1.6
2016-Aug-20 12:32N 49°44' W 124°55'0 0.0
2016-Aug-20 11:32N 49°44' W 124°55'0 0.0
2016-Aug-20 10:26N 49°44' W 124°55'0 0.0
2016-Aug-20 09:32N 49°44' W 124°55'0 0.0
2016-Aug-20 08:32N 49°44' W 124°55'0 0.0
2016-Aug-20 07:32N 49°44' W 124°55'0 0.0
2016-Aug-20 06:32N 49°44' W 124°55'0 0.0
2016-Aug-20 05:32N 49°44' W 124°55'6 6.4
2016-Aug-20 04:33N 49°47' W 124°47'10 9.9
2016-Aug-20 03:33N 49°50' W 124°32'1312.9
2016-Aug-20 02:33N 49°46' W 124°51'3 3.3
2016-Aug-20 01:33N 49°44' W 124°55'1212.3
2016-Aug-20 00:33N 49°49' W 124°38'4 4.0
2016-Aug-19 23:34N 49°50' W 124°32'1413.9
2016-Aug-19 22:34N 49°46' W 124°52'2 2.4
2016-Aug-19 21:33N 49°44' W 124°55'  

Dump ship's entire track history